createdAt,value
2018-07-05T00:00:50.802Z,22.54
2018-07-05T00:01:50.381Z,22.39
2018-07-05T00:02:50.893Z,22.42
2018-07-05T00:03:50.958Z,22.41
2018-07-05T00:04:50.798Z,22.41
2018-07-05T00:05:50.967Z,22.30
2018-07-05T00:06:50.881Z,22.38
2018-07-05T00:07:50.690Z,22.39
2018-07-05T00:08:50.694Z,22.45
2018-07-05T00:09:50.791Z,22.36
2018-07-05T00:10:50.715Z,22.35
2018-07-05T00:11:50.632Z,22.36
2018-07-05T00:12:50.759Z,22.30
2018-07-05T00:13:50.701Z,22.26
2018-07-05T00:14:50.730Z,22.30
2018-07-05T00:15:50.736Z,22.23
2018-07-05T00:16:50.744Z,22.21
2018-07-05T00:17:50.747Z,22.29
2018-07-05T00:18:50.760Z,22.17
2018-07-05T00:19:50.944Z,22.29
2018-07-05T00:20:50.870Z,22.12
2018-07-05T00:21:50.717Z,22.05
2018-07-05T00:22:51.141Z,22.20
2018-07-05T00:23:50.897Z,22.05
2018-07-05T00:24:50.868Z,22.12
2018-07-05T00:25:51.000Z,22.11
2018-07-05T00:26:50.963Z,22.09
2018-07-05T00:27:50.873Z,22.06
2018-07-05T00:28:50.945Z,21.94
2018-07-05T00:29:50.983Z,21.93
2018-07-05T00:30:50.970Z,21.96
2018-07-05T00:31:50.979Z,22.02
2018-07-05T00:32:50.665Z,22.11
2018-07-05T00:33:50.775Z,22.08
2018-07-05T00:34:50.780Z,22.12
2018-07-05T00:35:50.857Z,22.14
2018-07-05T00:36:50.775Z,22.14
2018-07-05T00:37:50.853Z,22.11
2018-07-05T00:38:50.765Z,22.01
2018-07-05T00:39:50.911Z,22.06
2018-07-05T00:40:50.820Z,21.93
2018-07-05T00:41:50.811Z,22.08
2018-07-05T00:42:50.909Z,22.01
2018-07-05T00:43:50.769Z,21.93
2018-07-05T00:44:50.893Z,21.70
2018-07-05T00:45:50.901Z,21.71
2018-07-05T00:46:50.903Z,21.70
2018-07-05T00:47:50.898Z,21.93
2018-07-05T00:48:50.873Z,21.83
2018-07-05T00:49:50.858Z,21.79
2018-07-05T00:50:50.894Z,21.74
2018-07-05T00:51:50.998Z,21.68
2018-07-05T00:52:50.973Z,21.71
2018-07-05T00:53:51.135Z,21.82
2018-07-05T00:54:50.880Z,21.61
2018-07-05T00:55:53.277Z,21.67
2018-07-05T00:56:50.892Z,21.70
2018-07-05T00:57:50.895Z,21.67
2018-07-05T00:58:50.858Z,21.55
2018-07-05T00:59:50.439Z,21.48
2018-07-05T01:00:50.810Z,21.55
2018-07-05T01:01:51.084Z,21.52
2018-07-05T01:02:51.108Z,21.58
2018-07-05T01:03:51.117Z,21.45
2018-07-05T01:04:51.092Z,21.49
2018-07-05T01:05:51.139Z,21.38
2018-07-05T01:06:51.132Z,21.36
2018-07-05T01:07:51.083Z,21.48
2018-07-05T01:08:51.102Z,21.34
2018-07-05T01:09:51.129Z,21.42
2018-07-05T01:10:52.960Z,21.45
2018-07-05T01:11:51.120Z,21.36
2018-07-05T01:12:51.141Z,21.46
2018-07-05T01:13:51.060Z,21.36
2018-07-05T01:14:51.156Z,21.37
2018-07-05T01:15:51.149Z,21.36
2018-07-05T01:16:51.224Z,21.33
2018-07-05T01:17:51.156Z,21.42
2018-07-05T01:18:51.120Z,21.42
2018-07-05T01:19:51.174Z,21.16
2018-07-05T01:20:51.118Z,21.09
2018-07-05T01:21:50.557Z,21.12
2018-07-05T01:22:51.151Z,21.42
2018-07-05T01:23:51.138Z,21.22
2018-07-05T01:24:51.092Z,21.15
2018-07-05T01:25:51.092Z,21.18
2018-07-05T01:26:51.142Z,21.27
2018-07-05T01:27:51.100Z,21.13
2018-07-05T01:28:51.120Z,21.09
2018-07-05T01:29:51.088Z,21.18
2018-07-05T01:30:51.092Z,21.05
2018-07-05T01:31:51.094Z,21.05
2018-07-05T01:32:51.093Z,20.87
2018-07-05T01:33:51.149Z,21.03
2018-07-05T01:34:51.040Z,21.03
2018-07-05T01:35:51.143Z,20.87
2018-07-05T01:36:51.067Z,20.81
2018-07-05T01:37:51.117Z,20.91
2018-07-05T01:38:51.149Z,20.82
2018-07-05T01:39:51.155Z,20.78
2018-07-05T01:40:51.128Z,20.94
2018-07-05T01:41:51.127Z,20.93
2018-07-05T01:42:51.178Z,20.93
2018-07-05T01:43:50.579Z,20.94
2018-07-05T01:44:51.128Z,20.91
2018-07-05T01:45:52.938Z,20.87
2018-07-05T01:46:51.118Z,20.88
2018-07-05T01:47:51.174Z,20.87
2018-07-05T01:48:51.149Z,20.83
2018-07-05T01:49:51.069Z,20.71
2018-07-05T01:50:51.099Z,20.78
2018-07-05T01:51:51.106Z,20.82
2018-07-05T01:52:51.041Z,20.71
2018-07-05T01:53:51.101Z,20.71
2018-07-05T01:54:51.119Z,20.71
2018-07-05T01:55:51.127Z,20.72
2018-07-05T01:56:51.060Z,20.75
2018-07-05T01:57:51.161Z,20.61
2018-07-05T01:58:51.039Z,20.66
2018-07-05T01:59:51.141Z,20.61
2018-07-05T02:00:51.152Z,20.56
2018-07-05T02:01:51.078Z,20.63
2018-07-05T02:02:51.170Z,20.53
2018-07-05T02:03:51.089Z,20.54
2018-07-05T02:04:51.076Z,20.53
2018-07-05T02:05:51.101Z,20.57
2018-07-05T02:06:51.139Z,20.48
2018-07-05T02:07:51.159Z,20.56
2018-07-05T02:08:51.105Z,20.53
2018-07-05T02:09:51.118Z,20.53
2018-07-05T02:10:51.125Z,20.64
2018-07-05T02:11:51.213Z,20.51
2018-07-05T02:12:51.118Z,20.53
2018-07-05T02:13:51.108Z,20.57
2018-07-05T02:14:51.468Z,20.58
2018-07-05T02:15:51.190Z,20.56
2018-07-05T02:16:51.123Z,20.56
2018-07-05T02:17:51.153Z,20.48
2018-07-05T02:18:51.044Z,20.35
2018-07-05T02:19:51.129Z,20.26
2018-07-05T02:20:51.087Z,20.40
2018-07-05T02:21:51.114Z,20.30
2018-07-05T02:22:51.124Z,20.38
2018-07-05T02:23:51.140Z,20.27
2018-07-05T02:24:51.111Z,20.34
2018-07-05T02:25:51.201Z,20.34
2018-07-05T02:26:51.084Z,20.35
2018-07-05T02:27:51.175Z,20.25
2018-07-05T02:28:51.132Z,20.19
2018-07-05T02:29:51.199Z,20.15
2018-07-05T02:30:50.643Z,20.20
2018-07-05T02:31:53.043Z,20.23
2018-07-05T02:32:51.166Z,20.26
2018-07-05T02:33:50.660Z,20.22
2018-07-05T02:34:51.116Z,20.19
2018-07-05T02:35:51.128Z,20.37
2018-07-05T02:36:51.185Z,20.20
2018-07-05T02:37:51.123Z,20.26
2018-07-05T02:38:51.198Z,20.10
2018-07-05T02:39:51.119Z,20.13
2018-07-05T02:40:51.109Z,20.12
2018-07-05T02:41:51.100Z,20.22
2018-07-05T02:42:51.095Z,20.25
2018-07-05T02:43:51.176Z,20.27
2018-07-05T02:44:51.109Z,20.17
2018-07-05T02:45:51.179Z,20.20
2018-07-05T02:46:51.164Z,20.19
2018-07-05T02:47:51.149Z,20.19
2018-07-05T02:48:51.128Z,20.19
2018-07-05T02:49:51.118Z,20.22
2018-07-05T02:50:51.133Z,20.17
2018-07-05T02:51:51.109Z,20.08
2018-07-05T02:52:51.104Z,20.02
2018-07-05T02:53:51.139Z,20.07
2018-07-05T02:54:51.133Z,19.97
2018-07-05T02:55:51.199Z,20.04
2018-07-05T02:56:51.196Z,20.01
2018-07-05T02:57:51.107Z,20.08
2018-07-05T02:58:51.173Z,20.15
2018-07-05T02:59:51.108Z,19.98
2018-07-05T03:00:51.116Z,19.97
2018-07-05T03:01:51.240Z,19.97
2018-07-05T03:02:51.122Z,19.98
2018-07-05T03:03:51.229Z,19.98
2018-07-05T03:04:51.203Z,20.02
2018-07-05T03:05:51.207Z,19.98
2018-07-05T03:06:51.108Z,20.13
2018-07-05T03:07:51.086Z,19.95
2018-07-05T03:08:51.156Z,20.02
2018-07-05T03:09:50.689Z,19.90
2018-07-05T03:10:51.078Z,19.95
2018-07-05T03:11:51.210Z,19.92
2018-07-05T03:12:51.210Z,20.00
2018-07-05T03:13:51.123Z,19.95
2018-07-05T03:14:51.102Z,20.00
2018-07-05T03:15:50.715Z,19.83
2018-07-05T03:16:51.184Z,19.87
2018-07-05T03:17:51.101Z,19.85
2018-07-05T03:18:51.159Z,19.79
2018-07-05T03:19:51.179Z,19.80
2018-07-05T03:20:51.174Z,19.78
2018-07-05T03:21:51.247Z,19.80
2018-07-05T03:22:51.143Z,19.85
2018-07-05T03:23:51.200Z,19.83
2018-07-05T03:24:51.192Z,19.85
2018-07-05T03:25:51.194Z,19.82
2018-07-05T03:26:51.176Z,19.86
2018-07-05T03:27:51.204Z,19.65
2018-07-05T03:28:51.213Z,19.58
2018-07-05T03:29:51.200Z,19.78
2018-07-05T03:30:51.084Z,19.70
2018-07-05T03:31:51.182Z,19.71
2018-07-05T03:32:53.349Z,19.72
2018-07-05T03:33:51.113Z,19.70
2018-07-05T03:34:51.135Z,19.62
2018-07-05T03:35:50.749Z,19.67
2018-07-05T03:36:51.185Z,19.55
2018-07-05T03:37:51.175Z,19.58
2018-07-05T03:38:51.222Z,19.49
2018-07-05T03:39:51.224Z,19.52
2018-07-05T03:40:51.185Z,19.60
2018-07-05T03:41:51.189Z,19.67
2018-07-05T03:42:51.182Z,19.72
2018-07-05T03:43:51.203Z,19.75
2018-07-05T03:44:51.198Z,19.82
2018-07-05T03:45:51.192Z,19.83
2018-07-05T03:46:51.179Z,19.76
2018-07-05T03:47:51.218Z,19.76
2018-07-05T03:48:51.196Z,19.65
2018-07-05T03:49:51.190Z,19.67
2018-07-05T03:50:51.214Z,19.72
2018-07-05T03:51:51.189Z,19.71
2018-07-05T03:52:51.239Z,19.64
2018-07-05T03:53:51.239Z,19.76
2018-07-05T03:54:51.232Z,19.65
2018-07-05T03:55:51.230Z,19.80
2018-07-05T03:56:50.709Z,19.79
2018-07-05T03:57:51.219Z,19.70
2018-07-05T03:58:51.164Z,19.79
2018-07-05T03:59:51.178Z,19.71
2018-07-05T04:00:51.180Z,19.70
2018-07-05T04:01:51.176Z,19.67
2018-07-05T04:02:51.220Z,19.72
2018-07-05T04:03:51.195Z,19.67
2018-07-05T04:04:51.164Z,19.68
2018-07-05T04:05:51.195Z,19.62
2018-07-05T04:06:51.212Z,19.71
2018-07-05T04:07:51.209Z,19.65
2018-07-05T04:08:51.210Z,19.64
2018-07-05T04:09:51.222Z,19.65
2018-07-05T04:10:50.704Z,19.75
2018-07-05T04:11:51.186Z,19.78
2018-07-05T04:12:51.196Z,19.80
2018-07-05T04:13:51.196Z,19.85
2018-07-05T04:14:51.168Z,19.80
2018-07-05T04:15:51.238Z,19.97
2018-07-05T04:16:51.230Z,19.85
2018-07-05T04:17:51.239Z,19.89
2018-07-05T04:18:51.181Z,19.79
2018-07-05T04:19:51.227Z,19.78
2018-07-05T04:20:51.241Z,19.82
2018-07-05T04:21:51.101Z,19.90
2018-07-05T04:22:51.786Z,19.94
2018-07-05T04:23:51.134Z,19.90
2018-07-05T04:24:51.172Z,20.00
2018-07-05T04:25:51.699Z,19.87
2018-07-05T04:26:50.691Z,19.95
2018-07-05T04:27:51.179Z,19.94
2018-07-05T04:28:51.690Z,19.97
2018-07-05T04:29:51.684Z,19.94
2018-07-05T04:30:50.774Z,19.79
2018-07-05T04:31:51.221Z,19.85
2018-07-05T04:32:51.213Z,19.95
2018-07-05T04:33:51.208Z,19.98
2018-07-05T04:34:51.192Z,20.01
2018-07-05T04:35:51.261Z,19.80
2018-07-05T04:36:51.215Z,20.02
2018-07-05T04:37:51.107Z,19.94
2018-07-05T04:38:51.221Z,19.94
2018-07-05T04:39:51.197Z,19.94
2018-07-05T04:40:51.200Z,19.94
2018-07-05T04:41:51.242Z,19.89
2018-07-05T04:42:51.207Z,19.90
2018-07-05T04:43:51.288Z,19.98
2018-07-05T04:44:51.202Z,20.05
2018-07-05T04:45:51.239Z,19.94
2018-07-05T04:46:51.172Z,19.97
2018-07-05T04:47:51.107Z,20.01
2018-07-05T04:48:51.186Z,19.90
2018-07-05T04:49:51.206Z,19.95
2018-07-05T04:50:51.189Z,19.95
2018-07-05T04:51:51.198Z,20.02
2018-07-05T04:52:51.132Z,19.98
2018-07-05T04:53:51.223Z,20.02
2018-07-05T04:54:51.204Z,20.05
2018-07-05T04:55:51.195Z,19.98
2018-07-05T04:56:51.262Z,20.00
2018-07-05T04:57:51.233Z,20.02
2018-07-05T04:58:51.256Z,19.95
2018-07-05T04:59:51.219Z,20.01
2018-07-05T05:00:51.708Z,19.97
2018-07-05T05:01:51.161Z,20.13
2018-07-05T05:02:51.091Z,20.02
2018-07-05T05:03:51.710Z,20.10
2018-07-05T05:04:51.206Z,20.10
2018-07-05T05:05:51.224Z,20.13
2018-07-05T05:06:51.693Z,20.10
2018-07-05T05:07:51.127Z,20.25
2018-07-05T05:09:51.896Z,20.12
2018-07-05T05:10:51.701Z,20.27
2018-07-05T05:11:51.722Z,20.10
2018-07-05T05:12:52.595Z,20.15
2018-07-05T05:13:51.229Z,20.22
2018-07-05T05:14:51.284Z,20.20
2018-07-05T05:15:51.710Z,20.33
2018-07-05T05:16:50.953Z,20.27
2018-07-05T05:17:51.709Z,20.22
2018-07-05T05:18:51.204Z,20.25
2018-07-05T05:19:51.432Z,20.31
2018-07-05T05:20:51.174Z,20.31
2018-07-05T05:21:51.684Z,20.19
2018-07-05T05:22:51.460Z,20.25
2018-07-05T05:23:51.222Z,20.34
2018-07-05T05:24:51.459Z,20.30
2018-07-05T05:25:51.466Z,20.25
2018-07-05T05:26:51.996Z,20.37
2018-07-05T05:27:51.231Z,20.34
2018-07-05T05:28:51.231Z,20.33
2018-07-05T05:29:51.154Z,20.34
2018-07-05T05:30:51.196Z,20.33
2018-07-05T05:31:51.170Z,20.23
2018-07-05T05:32:51.418Z,20.30
2018-07-05T05:33:51.813Z,20.38
2018-07-05T05:34:51.627Z,20.37
2018-07-05T05:35:51.235Z,20.25
2018-07-05T05:36:51.226Z,20.37
2018-07-05T05:37:51.229Z,20.27
2018-07-05T05:38:53.019Z,20.20
2018-07-05T05:39:51.200Z,19.85
2018-07-05T05:40:51.221Z,19.92
2018-07-05T05:41:51.228Z,20.04
2018-07-05T05:42:51.252Z,20.08
2018-07-05T05:43:51.229Z,20.02
2018-07-05T05:44:51.209Z,20.16
2018-07-05T05:45:51.233Z,20.17
2018-07-05T05:46:51.719Z,20.25
2018-07-05T05:47:51.198Z,20.25
2018-07-05T05:48:51.215Z,20.33
2018-07-05T05:49:51.217Z,20.35
2018-07-05T05:50:53.570Z,20.33
2018-07-05T05:51:51.449Z,20.37
2018-07-05T05:52:50.783Z,20.41
2018-07-05T05:53:51.288Z,20.38
2018-07-05T05:54:51.246Z,20.41
2018-07-05T05:55:51.733Z,20.33
2018-07-05T05:56:50.754Z,20.48
2018-07-05T05:57:51.862Z,20.50
2018-07-05T05:58:50.851Z,20.63
2018-07-05T05:59:51.250Z,20.50
2018-07-05T06:00:51.225Z,20.53
2018-07-05T06:01:51.170Z,20.57
2018-07-05T06:02:50.875Z,20.61
2018-07-05T06:03:51.173Z,20.63
2018-07-05T06:04:51.806Z,20.64
2018-07-05T06:05:51.226Z,20.79
2018-07-05T06:06:51.285Z,20.85
2018-07-05T06:07:51.222Z,20.88
2018-07-05T06:08:57.232Z,20.87
2018-07-05T06:09:51.142Z,20.82
2018-07-05T06:10:51.219Z,20.88
2018-07-05T06:11:51.206Z,20.87
2018-07-05T06:12:51.256Z,20.72
2018-07-05T06:13:51.200Z,20.94
2018-07-05T06:14:51.267Z,20.87
2018-07-05T06:15:51.277Z,21.01
2018-07-05T06:16:51.403Z,20.98
2018-07-05T06:17:51.731Z,20.90
2018-07-05T06:18:52.353Z,20.88
2018-07-05T06:19:51.346Z,20.93
2018-07-05T06:20:51.249Z,21.18
2018-07-05T06:21:51.732Z,21.11
2018-07-05T06:22:51.276Z,21.12
2018-07-05T06:23:51.749Z,21.12
2018-07-05T06:24:51.480Z,21.22
2018-07-05T06:25:51.223Z,21.24
2018-07-05T06:26:51.460Z,21.13
2018-07-05T06:27:51.204Z,21.11
2018-07-05T06:28:51.307Z,20.97
2018-07-05T06:29:51.251Z,21.01
2018-07-05T06:30:51.176Z,21.09
2018-07-05T06:31:51.835Z,21.13
2018-07-05T06:32:51.213Z,21.22
2018-07-05T06:33:51.235Z,21.21
2018-07-05T06:34:51.179Z,21.27
2018-07-05T06:35:51.512Z,21.24
2018-07-05T06:36:50.795Z,21.28
2018-07-05T06:37:51.204Z,21.13
2018-07-05T06:38:51.459Z,21.08
2018-07-05T06:39:51.241Z,21.01
2018-07-05T06:40:51.260Z,21.01
2018-07-05T06:41:51.480Z,21.16
2018-07-05T06:42:51.733Z,21.12
2018-07-05T06:43:51.945Z,21.13
2018-07-05T06:44:51.241Z,21.21
2018-07-05T06:45:51.753Z,21.30
2018-07-05T06:46:51.447Z,21.38
2018-07-05T06:47:51.964Z,21.28
2018-07-05T06:48:51.212Z,21.28
2018-07-05T06:49:51.211Z,21.42
2018-07-05T06:50:51.748Z,21.49
2018-07-05T06:51:51.321Z,21.43
2018-07-05T06:52:53.161Z,21.37
2018-07-05T06:53:51.272Z,21.45
2018-07-05T06:54:51.773Z,21.56
2018-07-05T06:55:51.250Z,21.53
2018-07-05T06:56:51.213Z,21.79
2018-07-05T06:57:51.231Z,21.74
2018-07-05T06:58:51.157Z,21.82
2018-07-05T06:59:51.749Z,21.91
2018-07-05T07:00:51.276Z,21.81
2018-07-05T07:01:51.498Z,21.86
2018-07-05T07:02:50.865Z,21.91
2018-07-05T07:03:51.551Z,21.91
2018-07-05T07:04:51.183Z,21.77
2018-07-05T07:05:51.879Z,21.66
2018-07-05T07:06:51.232Z,21.73
2018-07-05T07:07:51.246Z,21.75
2018-07-05T07:08:51.223Z,21.81
2018-07-05T07:09:50.899Z,21.86
2018-07-05T07:10:51.216Z,21.81
2018-07-05T07:11:51.280Z,21.91
2018-07-05T07:12:51.735Z,22.04
2018-07-05T07:13:51.306Z,22.02
2018-07-05T07:14:51.316Z,22.08
2018-07-05T07:15:51.460Z,22.15
2018-07-05T07:16:51.319Z,22.05
2018-07-05T07:17:51.752Z,22.11
2018-07-05T07:18:51.761Z,22.11
2018-07-05T07:19:51.752Z,22.26
2018-07-05T07:20:51.205Z,22.21
2018-07-05T07:21:51.234Z,22.26
2018-07-05T07:22:51.406Z,22.36
2018-07-05T07:23:51.506Z,22.31
2018-07-05T07:24:51.739Z,22.30
2018-07-05T07:25:50.951Z,22.31
2018-07-05T07:26:51.648Z,22.27
2018-07-05T07:27:51.507Z,22.39
2018-07-05T07:28:50.917Z,22.35
2018-07-05T07:29:51.235Z,22.39
2018-07-05T07:30:51.508Z,22.45
2018-07-05T07:31:51.429Z,22.49
2018-07-05T07:32:51.465Z,22.54
2018-07-05T07:33:51.226Z,22.60
2018-07-05T07:34:51.279Z,22.54
2018-07-05T07:35:50.984Z,22.64
2018-07-05T07:36:51.560Z,22.64
2018-07-05T07:37:51.148Z,22.69
2018-07-05T07:38:51.162Z,22.59
2018-07-05T07:39:51.767Z,22.81
2018-07-05T07:40:51.795Z,22.89
2018-07-05T07:41:51.274Z,23.07
2018-07-05T07:42:51.942Z,23.04
2018-07-05T07:43:50.984Z,22.86
2018-07-05T07:44:51.932Z,22.86
2018-07-05T07:45:51.008Z,22.93
2018-07-05T07:46:51.778Z,22.88
2018-07-05T07:47:51.867Z,22.99
2018-07-05T07:48:51.364Z,22.99
2018-07-05T07:49:51.373Z,22.94
2018-07-05T07:50:51.398Z,23.00
2018-07-05T07:51:51.404Z,22.96
2018-07-05T07:52:51.009Z,23.00
2018-07-05T07:53:52.278Z,23.07
2018-07-05T07:54:51.330Z,23.16
2018-07-05T07:55:51.333Z,23.16
2018-07-05T07:56:51.783Z,23.23
2018-07-05T07:57:51.403Z,23.23
2018-07-05T07:58:51.969Z,23.29
2018-07-05T07:59:51.910Z,23.39
2018-07-05T08:00:51.476Z,23.41
2018-07-05T08:01:51.077Z,23.47
2018-07-05T08:02:51.839Z,23.45
2018-07-05T08:03:51.797Z,23.62
2018-07-05T08:04:51.494Z,23.53
2018-07-05T08:05:51.181Z,23.59
2018-07-05T08:06:51.164Z,23.52
2018-07-05T08:07:51.779Z,23.57
2018-07-05T08:08:51.484Z,23.62
2018-07-05T08:09:51.477Z,23.63
2018-07-05T08:10:51.442Z,23.63
2018-07-05T08:11:53.136Z,23.63
2018-07-05T08:12:51.900Z,23.72
2018-07-05T08:13:51.351Z,23.68
2018-07-05T08:14:52.310Z,23.59
2018-07-05T08:15:51.448Z,23.75
2018-07-05T08:16:51.527Z,23.87
2018-07-05T08:17:51.381Z,23.79
2018-07-05T08:18:51.356Z,23.81
2018-07-05T08:19:51.415Z,23.89
2018-07-05T08:20:51.818Z,23.93
2018-07-05T08:21:51.393Z,23.94
2018-07-05T08:22:51.344Z,23.81
2018-07-05T08:23:51.009Z,23.87
2018-07-05T08:24:51.977Z,23.90
2018-07-05T08:25:51.074Z,23.81
2018-07-05T08:26:51.433Z,23.86
2018-07-05T08:27:51.872Z,23.84
2018-07-05T08:28:51.487Z,24.02
2018-07-05T08:29:51.563Z,23.99
2018-07-05T08:30:51.542Z,24.04
2018-07-05T08:31:53.443Z,24.14
2018-07-05T08:32:51.531Z,24.16
2018-07-05T08:33:51.128Z,24.12
2018-07-05T08:34:51.485Z,24.00
2018-07-05T08:35:52.289Z,23.94
2018-07-05T08:36:52.073Z,24.00
2018-07-05T08:37:51.500Z,24.06
2018-07-05T08:38:51.365Z,24.09
2018-07-05T08:39:51.357Z,24.11
2018-07-05T08:40:51.943Z,24.11
2018-07-05T08:41:52.073Z,24.11
2018-07-05T08:42:51.902Z,24.19
2018-07-05T08:43:52.148Z,24.23
2018-07-05T08:44:52.046Z,24.34
2018-07-05T08:45:56.044Z,24.05
2018-07-05T08:46:51.494Z,24.12
2018-07-05T08:48:52.851Z,24.06
2018-07-05T08:49:51.947Z,24.16
2018-07-05T08:50:51.609Z,24.14
2018-07-05T08:51:51.503Z,24.02
2018-07-05T08:52:51.564Z,24.05
2018-07-05T08:53:52.020Z,24.16
2018-07-05T08:54:54.724Z,24.16
2018-07-05T08:55:53.081Z,24.33
2018-07-05T08:56:51.820Z,24.48
2018-07-05T08:57:51.810Z,24.49
2018-07-05T08:58:54.685Z,24.51
2018-07-05T08:59:51.647Z,24.63
2018-07-05T09:00:51.749Z,24.56
2018-07-05T09:01:52.307Z,24.67
2018-07-05T09:02:51.791Z,24.70
2018-07-05T09:03:51.716Z,24.61
2018-07-05T09:04:51.783Z,24.61
2018-07-05T09:05:52.438Z,24.68
2018-07-05T09:06:52.041Z,24.70
2018-07-05T09:07:52.308Z,24.49
2018-07-05T09:08:52.760Z,24.51
2018-07-05T09:09:51.788Z,24.60
2018-07-05T09:10:51.746Z,24.52
2018-07-05T09:11:53.618Z,24.61
2018-07-05T09:12:51.814Z,24.66
2018-07-05T09:13:51.807Z,24.59
2018-07-05T09:14:51.807Z,24.48
2018-07-05T09:15:52.513Z,24.49
2018-07-05T09:16:51.799Z,24.55
2018-07-05T09:17:52.098Z,24.56
2018-07-05T09:18:51.805Z,24.60
2018-07-05T09:19:51.785Z,24.66
2018-07-05T09:20:52.010Z,24.75
2018-07-05T09:21:52.012Z,24.93
2018-07-05T09:22:51.819Z,24.80
2018-07-05T09:23:52.018Z,24.80
2018-07-05T09:24:52.300Z,24.74
2018-07-05T09:25:51.967Z,24.83
2018-07-05T09:26:51.721Z,24.87
2018-07-05T09:27:52.032Z,25.04
2018-07-05T09:28:51.757Z,25.09
2018-07-05T09:29:52.075Z,24.83
2018-07-05T09:30:52.006Z,24.98
2018-07-05T09:31:52.310Z,25.08
2018-07-05T09:32:51.787Z,25.19
2018-07-05T09:33:51.198Z,25.08
2018-07-05T09:34:52.417Z,25.16
2018-07-05T09:35:52.017Z,25.34
2018-07-05T09:36:51.797Z,25.36
2018-07-05T09:37:52.334Z,25.39
2018-07-05T09:38:51.751Z,25.27
2018-07-05T09:39:52.071Z,25.38
2018-07-05T09:40:51.794Z,25.38
2018-07-05T09:41:51.754Z,25.46
2018-07-05T09:42:51.961Z,25.49
2018-07-05T09:43:51.770Z,25.45
2018-07-05T09:44:51.794Z,25.31
2018-07-05T09:45:51.864Z,25.39
2018-07-05T09:46:52.358Z,25.53
2018-07-05T09:47:51.997Z,25.61
2018-07-05T09:48:51.316Z,25.64
2018-07-05T09:49:51.780Z,25.74
2018-07-05T09:50:51.811Z,25.74
2018-07-05T09:51:52.648Z,25.66
2018-07-05T09:52:52.390Z,25.85
2018-07-05T09:53:51.551Z,25.93
2018-07-05T09:54:52.063Z,25.94
2018-07-05T09:55:51.824Z,25.94
2018-07-05T09:56:51.792Z,25.94
2018-07-05T09:57:51.805Z,25.91
2018-07-05T09:58:52.079Z,25.81
2018-07-05T09:59:51.860Z,25.86
2018-07-05T10:00:52.050Z,25.96
2018-07-05T10:01:52.070Z,25.89
2018-07-05T10:02:51.874Z,25.76
2018-07-05T10:03:51.928Z,25.91
2018-07-05T10:04:52.314Z,25.85
2018-07-05T10:05:51.445Z,25.89
2018-07-05T10:06:53.042Z,25.93
2018-07-05T10:07:53.528Z,25.90
2018-07-05T10:08:51.812Z,25.78
2018-07-05T10:09:51.854Z,25.85
2018-07-05T10:10:54.052Z,25.98
2018-07-05T10:11:51.363Z,26.03
2018-07-05T10:12:52.327Z,26.11
2018-07-05T10:13:53.854Z,26.03
2018-07-05T10:15:51.479Z,26.21
2018-07-05T10:16:52.066Z,26.34
2018-07-05T10:17:57.834Z,26.19
2018-07-05T10:18:52.699Z,26.31
2018-07-05T10:19:51.595Z,26.36
2018-07-05T10:20:52.264Z,26.56
2018-07-05T10:21:51.845Z,26.50
2018-07-05T10:22:51.852Z,26.56
2018-07-05T10:23:52.532Z,26.56
2018-07-05T10:24:51.493Z,26.71
2018-07-05T10:25:51.855Z,26.68
2018-07-05T10:26:51.856Z,26.56
2018-07-05T10:27:51.837Z,26.59
2018-07-05T10:28:52.321Z,26.60
2018-07-05T10:29:51.830Z,26.39
2018-07-05T10:30:52.343Z,26.47
2018-07-05T10:31:51.865Z,26.59
2018-07-05T10:32:51.887Z,26.71
2018-07-05T10:33:52.335Z,26.47
2018-07-05T10:34:51.814Z,26.38
2018-07-05T10:35:52.467Z,26.36
2018-07-05T10:36:51.961Z,26.49
2018-07-05T10:37:53.053Z,26.54
2018-07-05T10:38:52.337Z,26.56
2018-07-05T10:39:51.872Z,26.42
2018-07-05T10:40:53.997Z,26.60
2018-07-05T10:41:51.931Z,26.83
2018-07-05T10:42:51.820Z,26.94
2018-07-05T10:43:51.828Z,26.88
2018-07-05T10:44:52.059Z,26.90
2018-07-05T10:45:51.826Z,26.96
2018-07-05T10:46:51.772Z,26.72
2018-07-05T10:47:52.331Z,26.78
2018-07-05T10:48:51.905Z,26.73
2018-07-05T10:49:51.897Z,26.64
2018-07-05T10:50:51.877Z,26.78
2018-07-05T10:51:51.861Z,26.91
2018-07-05T10:52:52.019Z,26.88
2018-07-05T10:53:51.877Z,26.71
2018-07-05T10:54:52.549Z,26.73
2018-07-05T10:55:52.057Z,26.76
2018-07-05T10:56:51.935Z,26.98
2018-07-05T10:57:51.952Z,27.02
2018-07-05T10:58:51.969Z,27.11
2018-07-05T10:59:52.420Z,27.08
2018-07-05T11:00:52.264Z,27.27
2018-07-05T11:01:53.790Z,27.38
2018-07-05T11:02:52.058Z,27.52
2018-07-05T11:03:51.631Z,27.52
2018-07-05T11:04:52.093Z,27.46
2018-07-05T11:05:51.705Z,27.50
2018-07-05T11:06:53.054Z,27.38
2018-07-05T11:07:52.151Z,27.48
2018-07-05T11:08:52.548Z,27.71
2018-07-05T11:09:52.068Z,27.80
2018-07-05T11:10:52.140Z,27.53
2018-07-05T11:11:52.501Z,27.42
2018-07-05T11:12:52.535Z,27.39
2018-07-05T11:13:52.552Z,27.48
2018-07-05T11:14:53.419Z,27.58
2018-07-05T11:15:52.161Z,27.71
2018-07-05T11:16:52.036Z,27.68
2018-07-05T11:17:52.005Z,27.76
2018-07-05T11:18:52.012Z,28.01
2018-07-05T11:19:53.433Z,28.27
2018-07-05T11:20:52.627Z,28.43
2018-07-05T11:21:52.453Z,28.33
2018-07-05T11:22:52.125Z,28.38
2018-07-05T11:23:52.131Z,28.43
2018-07-05T11:24:52.123Z,28.18
2018-07-05T11:25:52.129Z,28.24
2018-07-05T11:26:52.092Z,28.28
2018-07-05T11:27:52.075Z,28.18
2018-07-05T11:28:52.570Z,28.28
2018-07-05T11:29:52.542Z,28.42
2018-07-05T11:30:52.204Z,28.51
2018-07-05T11:31:53.606Z,28.60
2018-07-05T11:32:52.705Z,28.58
2018-07-05T11:33:53.135Z,28.52
2018-07-05T11:34:52.354Z,28.65
2018-07-05T11:35:52.325Z,28.64
2018-07-05T11:36:52.441Z,28.67
2018-07-05T11:37:52.553Z,28.69
2018-07-05T11:38:52.653Z,28.87
2018-07-05T11:39:52.418Z,28.79
2018-07-05T11:40:51.870Z,28.72
2018-07-05T11:41:52.363Z,28.91
2018-07-05T11:42:52.890Z,28.94
2018-07-05T11:43:52.078Z,29.23
2018-07-05T11:44:52.870Z,29.29
2018-07-05T11:45:51.814Z,29.35
2018-07-05T11:46:52.722Z,29.44
2018-07-05T11:47:52.149Z,29.25
2018-07-05T11:48:52.586Z,29.21
2018-07-05T11:49:53.078Z,29.21
2018-07-05T11:50:51.865Z,29.14
2018-07-05T11:51:54.413Z,29.00
2018-07-05T11:52:52.908Z,29.08
2018-07-05T11:53:52.533Z,29.21
2018-07-05T11:54:53.063Z,29.08
2018-07-05T11:55:52.596Z,29.35
2018-07-05T11:56:52.104Z,29.23
2018-07-05T11:57:52.331Z,28.79
2018-07-05T11:58:53.004Z,28.65
2018-07-05T11:59:52.898Z,28.85
2018-07-05T12:00:52.617Z,28.91
2018-07-05T12:01:52.401Z,29.14
2018-07-05T12:02:51.802Z,28.97
2018-07-05T12:03:52.617Z,29.26
2018-07-05T12:04:52.643Z,29.23
2018-07-05T12:05:52.598Z,29.42
2018-07-05T12:06:51.894Z,29.37
2018-07-05T12:07:52.636Z,29.51
2018-07-05T12:08:52.321Z,29.67
2018-07-05T12:09:52.396Z,29.29
2018-07-05T12:10:52.409Z,29.33
2018-07-05T12:11:51.900Z,29.42
2018-07-05T12:12:52.889Z,29.54
2018-07-05T12:13:52.498Z,29.30
2018-07-05T12:14:52.560Z,29.30
2018-07-05T12:15:52.337Z,29.49
2018-07-05T12:16:52.137Z,29.73
2018-07-05T12:17:54.521Z,30.00
2018-07-05T12:18:52.605Z,30.03
2018-07-05T12:19:52.348Z,29.99
2018-07-05T12:20:52.568Z,29.86
2018-07-05T12:21:53.040Z,30.11
2018-07-05T12:22:54.109Z,30.15
2018-07-05T12:23:52.556Z,30.13
2018-07-05T12:24:52.461Z,30.13
2018-07-05T12:25:52.595Z,30.44
2018-07-05T12:26:52.472Z,30.30
2018-07-05T12:27:52.642Z,30.37
2018-07-05T12:28:52.451Z,30.45
2018-07-05T12:29:54.473Z,30.54
2018-07-05T12:30:52.418Z,30.22
2018-07-05T12:31:52.644Z,29.95
2018-07-05T12:32:52.610Z,30.23
2018-07-05T12:33:54.269Z,30.19
2018-07-05T12:34:52.484Z,30.54
2018-07-05T12:35:54.186Z,30.67
2018-07-05T12:36:52.901Z,30.81
2018-07-05T12:37:52.602Z,30.98
2018-07-05T12:38:52.611Z,31.10
2018-07-05T12:39:53.099Z,31.46
2018-07-05T12:40:52.475Z,30.96
2018-07-05T12:41:52.461Z,29.94
2018-07-05T12:42:52.474Z,30.32
2018-07-05T12:43:52.473Z,30.32
2018-07-05T12:44:53.342Z,30.61
2018-07-05T12:45:52.558Z,30.78
2018-07-05T12:46:52.682Z,31.09
2018-07-05T12:47:52.812Z,31.45
2018-07-05T12:48:52.664Z,31.41
2018-07-05T12:49:52.688Z,31.65
2018-07-05T12:50:52.966Z,31.38
2018-07-05T12:51:53.576Z,31.13
2018-07-05T12:52:52.871Z,31.05
2018-07-05T12:53:52.666Z,30.91
2018-07-05T12:54:52.872Z,30.93
2018-07-05T12:55:52.975Z,30.79